createdAt,value
2019-02-16T14:28:07.534Z,0.00
2019-02-16T14:30:45.859Z,0.50
2019-02-16T14:31:46.064Z,0.70
2019-02-16T14:33:18.896Z,0.80
2019-02-16T14:34:19.094Z,1.10
2019-02-16T14:35:52.004Z,1.20
2019-02-16T14:36:52.258Z,1.00
2019-02-16T14:57:57.051Z,0.50
2019-02-16T14:58:57.258Z,0.30
2019-02-16T14:59:57.446Z,0.40
2019-02-16T15:00:57.644Z,0.30
2019-02-16T15:01:57.846Z,0.20
2019-02-16T15:02:58.057Z,0.40
2019-02-16T15:03:58.249Z,0.00
2019-02-16T15:04:58.444Z,0.10
2019-02-16T15:05:58.640Z,0.00
2019-02-16T15:06:58.829Z,0.10
2019-02-16T15:07:59.020Z,0.10
2019-02-16T15:08:59.210Z,0.20
2019-02-16T15:09:59.401Z,0.50
2019-02-16T15:10:59.584Z,0.10
2019-02-16T15:11:59.767Z,0.20
2019-02-16T15:12:59.967Z,0.10
2019-02-16T15:14:00.162Z,0.30
2019-02-16T15:15:00.369Z,0.10
2019-02-16T15:16:00.557Z,0.10
2019-02-16T15:17:00.742Z,0.10
2019-02-16T15:18:00.957Z,0.20
2019-02-16T15:19:01.156Z,0.00
2019-02-16T15:20:01.341Z,0.20
2019-02-16T15:21:01.536Z,0.00
2019-02-16T15:22:02.855Z,0.10
2019-02-16T15:23:03.007Z,0.10
2019-02-16T15:24:03.197Z,0.00
2019-02-16T15:25:03.339Z,0.10
2019-02-16T15:26:03.489Z,0.00
2019-02-16T15:27:03.642Z,0.20
2019-02-16T15:28:03.778Z,0.30
2019-02-16T15:29:03.946Z,0.10
2019-02-16T15:30:04.072Z,0.20
2019-02-16T15:31:04.202Z,0.50
2019-02-16T15:32:04.344Z,0.30
2019-02-16T15:33:04.509Z,0.50
2019-02-16T15:34:04.689Z,0.00
2019-02-16T15:35:04.843Z,0.00
2019-02-16T15:41:09.383Z,0.30
2019-02-16T15:42:27.406Z,0.20
2019-02-16T16:24:33.737Z,0.00
2019-02-16T16:26:52.254Z,0.10
2019-02-16T16:28:11.420Z,0.10
2019-02-16T16:43:04.704Z,0.00
2019-02-16T16:44:13.213Z,0.20
2019-02-16T16:47:25.261Z,0.30
2019-02-16T16:48:32.387Z,0.00
